Time;durP1;ratioP1;P1;durP2;ratioP2;P2;SDS_P1;SDS_P2;PMS_P1;PMS_P2;Temp;Humidity;BMP_temperature;BMP_pressure;BME280_temperature;BME280_humidity;BME280_pressure;Samples;Min_cycle;Max_cycle;Signal;HPM_P1;HPM_P2
2021/06/05 00:01:09;;;;;;;10.00;8.70;;;;;;;17.94;100.00;98665.60;3647706;79;43108;-24
2021/06/05 00:06:17;;;;;;;9.13;8.15;;;;;;;17.93;100.00;98672.95;3649553;79;43447;-24
2021/06/05 00:11:26;;;;;;;7.90;7.15;;;;;;;17.91;100.00;98668.76;3636707;79;43764;-24
2021/06/05 00:16:34;;;;;;;8.40;7.60;;;;;;;17.90;100.00;98671.16;3641922;79;43381;-24
2021/06/05 00:21:41;;;;;;;7.00;6.40;;;;;;;17.87;100.00;98662.34;3619354;79;44427;-24
2021/06/05 00:26:47;;;;;;;9.85;8.85;;;;;;;17.88;100.00;98660.44;3600270;81;44038;-24
2021/06/05 00:31:53;;;;;;;9.78;8.78;;;;;;;17.89;100.00;98657.22;3596345;81;43054;-27
2021/06/05 00:36:59;;;;;;;10.25;9.28;;;;;;;17.82;100.00;98659.91;3595045;80;43266;-24
2021/06/05 00:42:07;;;;;;;7.80;7.08;;;;;;;17.81;100.00;98656.86;3594256;81;44115;-24
2021/06/05 00:47:13;;;;;;;8.40;7.60;;;;;;;17.74;100.00;98649.19;3596579;80;43671;-22
2021/06/05 00:52:22;;;;;;;11.43;8.70;;;;;;;17.70;100.00;98646.00;3601161;80;43608;-22
2021/06/05 00:57:30;;;;;;;9.63;8.70;;;;;;;17.63;100.00;98636.96;3586956;81;26415;-22
2021/06/05 01:02:36;;;;;;;12.65;9.60;;;;;;;17.56;100.00;98638.29;3593215;80;43373;-24
2021/06/05 01:07:43;;;;;;;11.68;9.33;;;;;;;17.43;100.00;98632.26;3594309;81;43669;-24
2021/06/05 01:12:53;;;;;;;11.73;10.18;;;;;;;17.36;100.00;98621.33;3597431;80;44173;-24
2021/06/05 01:18:03;;;;;;;10.95;9.55;;;;;;;17.24;100.00;98601.14;3619737;81;43318;-24
2021/06/05 01:23:21;;;;;;;10.43;9.40;;;;;;;17.20;100.00;98597.13;3687022;79;43624;-24
2021/06/05 01:28:32;;;;;;;10.35;9.38;;;;;;;17.29;100.00;98601.36;3626323;80;44134;-24
2021/06/05 01:33:41;;;;;;;10.18;9.05;;;;;;;17.23;100.00;98603.00;3579291;82;43278;-24
2021/06/05 01:38:51;;;;;;;9.55;8.65;;;;;;;17.08;100.00;98619.45;3614344;80;26395;-24
2021/06/05 01:44:01;;;;;;;10.20;9.18;;;;;;;16.73;100.00;98613.92;3574698;82;26402;-24
2021/06/05 01:49:08;;;;;;;10.05;9.05;;;;;;;16.82;100.00;98612.45;3608837;81;43351;-24
2021/06/05 01:54:18;;;;;;;11.08;9.45;;;;;;;16.80;100.00;98604.46;3636021;80;44496;-24
2021/06/05 01:59:25;;;;;;;9.43;8.53;;;;;;;16.80;100.00;98607.19;3601596;81;43360;-24
2021/06/05 02:04:33;;;;;;;9.78;8.53;;;;;;;16.67;100.00;98607.06;3534909;82;26349;-24
2021/06/05 02:09:40;;;;;;;11.12;8.53;;;;;;;16.45;100.00;98590.27;3604525;80;43367;-24
2021/06/05 02:14:51;;;;;;;10.58;9.48;;;;;;;16.22;100.00;98593.17;3632275;80;26394;-24
2021/06/05 02:20:01;;;;;;;11.50;10.20;;;;;;;16.35;100.00;98580.75;3635673;80;26390;-22
2021/06/05 02:25:12;;;;;;;12.82;10.88;;;;;;;16.42;100.00;98585.22;3598880;81;26415;-22
2021/06/05 02:30:20;;;;;;;11.05;9.73;;;;;;;16.30;100.00;98593.03;3600015;80;43690;-22
2021/06/05 02:35:31;;;;;;;11.18;10.10;;;;;;;16.19;100.00;98601.70;3559282;81;43674;-22
2021/06/05 02:40:46;;;;;;;11.45;10.10;;;;;;;16.12;100.00;98599.45;3639666;79;26831;-22
2021/06/05 02:45:55;;;;;;;11.43;10.32;;;;;;;16.12;100.00;98606.24;3661803;79;44046;-22
2021/06/05 02:51:04;;;;;;;13.18;11.08;;;;;;;16.15;100.00;98599.07;3651983;79;26480;-22
2021/06/05 02:56:12;;;;;;;11.20;10.10;;;;;;;16.15;100.00;98600.43;3656318;79;43718;-22
2021/06/05 03:01:19;;;;;;;14.18;12.78;;;;;;;16.12;100.00;98589.41;3649193;79;43957;-22
2021/06/05 03:06:26;;;;;;;14.50;12.80;;;;;;;16.13;100.00;98591.09;3646961;79;44611;-24
2021/06/05 03:11:34;;;;;;;11.75;10.55;;;;;;;16.08;100.00;98592.20;3661764;79;44174;-24
2021/06/05 03:16:41;;;;;;;15.43;13.78;;;;;;;16.06;100.00;98583.89;3680584;78;43649;-24
2021/06/05 03:21:48;;;;;;;13.55;12.25;;;;;;;16.07;100.00;98586.94;3671647;79;44498;-24
2021/06/05 03:26:56;;;;;;;14.25;12.75;;;;;;;16.00;100.00;98577.36;3641613;79;26454;-24
2021/06/05 03:32:03;;;;;;;15.68;12.30;;;;;;;16.02;100.00;98565.28;3651900;79;42995;-24
2021/06/05 03:37:10;;;;;;;14.10;12.70;;;;;;;16.06;100.00;98563.02;3665294;79;43670;-24
2021/06/05 03:42:18;;;;;;;14.58;12.90;;;;;;;16.14;100.00;98557.97;3666398;79;26869;-23
2021/06/05 03:47:25;;;;;;;13.25;11.95;;;;;;;16.11;100.00;98566.51;3644741;79;43170;-23
2021/06/05 03:52:32;;;;;;;14.53;12.95;;;;;;;16.13;100.00;98567.16;3659137;79;43443;-24
2021/06/05 03:57:40;;;;;;;13.90;12.35;;;;;;;16.18;100.00;98566.05;3644735;79;26726;-23
2021/06/05 04:02:46;;;;;;;14.68;12.73;;;;;;;16.31;100.00;98564.81;3660184;79;44032;-23
2021/06/05 04:07:52;;;;;;;14.60;13.10;;;;;;;16.50;100.00;98546.17;3661488;79;44060;-23
2021/06/05 04:12:59;;;;;;;13.70;12.30;;;;;;;16.64;100.00;98556.62;3661543;79;43237;-23
2021/06/05 04:18:09;;;;;;;14.07;12.65;;;;;;;16.68;100.00;98560.64;3650792;79;43225;-23
2021/06/05 04:23:16;;;;;;;14.33;12.85;;;;;;;16.72;100.00;98551.56;3652621;79;42756;-25
2021/06/05 04:28:24;;;;;;;14.40;12.88;;;;;;;16.72;100.00;98566.52;3658767;79;44034;-23
2021/06/05 04:33:31;;;;;;;15.65;14.05;;;;;;;16.83;100.00;98555.59;3650917;79;43418;-23
2021/06/05 04:38:39;;;;;;;16.52;14.38;;;;;;;16.83;100.00;98570.56;3663706;79;43358;-23
2021/06/05 04:43:46;;;;;;;15.35;13.85;;;;;;;16.84;100.00;98563.59;3645659;79;44450;-23
2021/06/05 04:48:53;;;;;;;15.28;13.68;;;;;;;16.96;100.00;98557.09;3657594;79;44431;-26
2021/06/05 04:54:01;;;;;;;15.18;13.58;;;;;;;17.02;100.00;98563.61;3656253;79;43721;-24
2021/06/05 04:59:09;;;;;;;15.70;13.55;;;;;;;17.08;100.00;98562.30;3634951;79;42900;-23
2021/06/05 05:04:15;;;;;;;15.32;13.83;;;;;;;17.18;100.00;98573.34;3654044;79;43227;-24
2021/06/05 05:09:22;;;;;;;14.93;13.55;;;;;;;17.24;100.00;98569.30;3655592;79;43344;-24
2021/06/05 05:14:28;;;;;;;16.05;13.95;;;;;;;17.36;100.00;98561.92;3695954;79;44031;-24
2021/06/05 05:19:37;;;;;;;16.37;14.30;;;;;;;17.41;100.00;98559.44;3657309;79;43714;-24
2021/06/05 05:24:44;;;;;;;16.07;14.47;;;;;;;17.50;100.00;98565.03;3660399;79;43671;-24
2021/06/05 05:29:49;;;;;;;16.35;14.73;;;;;;;17.51;100.00;98570.80;3670928;79;43326;-24
2021/06/05 05:34:56;;;;;;;16.23;14.53;;;;;;;17.61;100.00;98572.30;3681907;79;43711;-24
2021/06/05 05:40:03;;;;;;;15.05;13.62;;;;;;;17.65;100.00;98577.13;3668683;79;43431;-24
2021/06/05 05:45:13;;;;;;;16.25;14.03;;;;;;;17.73;100.00;98573.39;3672701;79;44559;-24
2021/06/05 05:50:21;;;;;;;16.97;15.18;;;;;;;17.84;100.00;98576.89;3671086;79;43696;-24
2021/06/05 05:55:28;;;;;;;14.73;13.22;;;;;;;17.92;100.00;98581.33;3675008;79;43400;-24
2021/06/05 06:00:37;;;;;;;15.58;13.50;;;;;;;18.08;100.00;98582.86;3665555;79;43682;-24
2021/06/05 06:05:44;;;;;;;14.78;13.35;;;;;;;18.25;100.00;98581.95;3671411;79;44542;-24
2021/06/05 06:10:51;;;;;;;14.15;12.85;;;;;;;18.50;100.00;98580.53;3673580;79;43690;-24
2021/06/05 06:15:57;;;;;;;16.52;14.83;;;;;;;18.74;100.00;98581.27;3668686;79;42778;-24
2021/06/05 06:21:06;;;;;;;14.58;13.18;;;;;;;18.99;100.00;98585.25;3665627;79;44784;-24
2021/06/05 06:26:15;;;;;;;16.60;14.85;;;;;;;19.09;100.00;98585.14;3654129;79;43990;-24
2021/06/05 06:31:22;;;;;;;16.55;14.95;;;;;;;19.19;100.00;98584.69;3659935;79;43472;-24
2021/06/05 06:36:29;;;;;;;16.37;14.73;;;;;;;19.28;100.00;98594.87;3639942;79;44424;-24
2021/06/05 06:41:37;;;;;;;16.85;15.15;;;;;;;19.44;100.00;98592.19;3658210;79;43424;-24
2021/06/05 06:46:45;;;;;;;16.05;14.43;;;;;;;19.65;100.00;98600.64;3657022;79;44423;-24
2021/06/05 06:51:52;;;;;;;13.65;12.35;;;;;;;19.84;100.00;98602.12;3656256;79;44169;-24
2021/06/05 06:56:58;;;;;;;13.22;11.93;;;;;;;20.03;100.00;98606.41;3644132;79;43989;-24
2021/06/05 07:02:08;;;;;;;15.70;11.97;;;;;;;20.01;100.00;98605.23;3647675;79;43994;-24
2021/06/05 07:07:14;;;;;;;13.18;11.80;;;;;;;20.18;100.00;98608.30;3679221;79;44030;-24
2021/06/05 07:12:20;;;;;;;11.70;10.60;;;;;;;20.33;100.00;98606.11;3686386;79;44121;-24
2021/06/05 07:17:26;;;;;;;11.80;10.70;;;;;;;20.59;100.00;98605.63;3639590;79;44010;-24
2021/06/05 07:22:32;;;;;;;11.00;9.90;;;;;;;20.90;100.00;98608.57;3655373;79;44068;-24
2021/06/05 07:27:39;;;;;;;10.18;9.28;;;;;;;21.06;100.00;98605.24;3631195;79;44688;-25
2021/06/05 07:32:45;;;;;;;11.38;10.28;;;;;;;21.24;100.00;98604.44;3624224;80;43418;-24
2021/06/05 07:37:51;;;;;;;10.65;9.65;;;;;;;21.49;100.00;98604.09;3638087;80;43701;-24
2021/06/05 07:42:57;;;;;;;12.93;11.73;;;;;;;21.45;100.00;98610.56;3634574;80;43298;-24
2021/06/05 07:48:08;;;;;;;13.00;11.80;;;;;;;21.32;100.00;98613.44;3636402;80;44113;-23
2021/06/05 07:53:14;;;;;;;10.35;9.35;;;;;;;21.37;100.00;98608.95;3629153;80;43407;-23
2021/06/05 07:58:20;;;;;;;8.60;7.70;;;;;;;21.46;100.00;98603.98;3630706;80;43261;-24
2021/06/05 08:03:26;;;;;;;9.18;8.28;;;;;;;21.63;100.00;98603.42;3535948;84;43740;-24
2021/06/05 08:08:32;;;;;;;10.55;9.58;;;;;;;21.81;100.00;98606.17;3627814;80;43805;-24
2021/06/05 08:13:37;;;;;;;10.03;9.13;;;;;;;21.69;100.00;98602.53;3620668;80;44546;-25
2021/06/05 08:18:43;;;;;;;10.28;9.35;;;;;;;21.54;100.00;98598.73;3534919;84;43309;-24
2021/06/05 08:23:49;;;;;;;10.25;9.20;;;;;;;21.63;100.00;98596.05;3556841;82;44096;-24
2021/06/05 08:28:55;;;;;;;10.18;9.20;;;;;;;21.54;100.00;98587.27;3557737;82;43400;-24
2021/06/05 08:34:01;;;;;;;9.48;8.58;;;;;;;21.54;100.00;98590.52;3589694;81;43420;-24
2021/06/05 08:39:08;;;;;;;8.78;7.97;;;;;;;21.67;100.00;98588.20;3642349;79;43729;-24
2021/06/05 08:44:17;;;;;;;8.13;7.33;;;;;;;21.80;100.00;98591.30;3643084;79;43654;-24
2021/06/05 08:49:26;;;;;;;9.20;8.30;;;;;;;21.90;100.00;98588.02;3638174;79;43474;-25
2021/06/05 08:54:44;;;;;;;8.33;7.50;;;;;;;21.94;100.00;98587.84;3648505;79;44392;-24
2021/06/05 08:59:53;;;;;;;8.23;7.53;;;;;;;21.97;100.00;98591.50;3640413;79;44220;-25
2021/06/05 09:05:01;;;;;;;8.60;7.80;;;;;;;22.23;100.00;98588.91;3651110;79;43696;-25
2021/06/05 09:10:11;;;;;;;8.98;8.08;;;;;;;22.27;100.00;98590.67;3655695;79;44063;-25
2021/06/05 09:15:25;;;;;;;8.38;7.50;;;;;;;22.36;100.00;98593.91;3659251;79;44070;-24
2021/06/05 09:20:37;;;;;;;8.53;7.70;;;;;;;22.39;100.00;98595.67;3651164;79;43369;-25
2021/06/05 09:25:43;;;;;;;8.15;7.37;;;;;;;22.47;100.00;98598.10;3661809;79;43305;-25
2021/06/05 09:30:52;;;;;;;7.80;7.03;;;;;;;22.69;100.00;98589.86;3660233;79;44549;-24
2021/06/05 09:36:23;;;;;;;7.70;7.00;;;;;;;22.92;100.00;98590.41;3654551;79;44130;-24
2021/06/05 09:41:32;;;;;;;7.25;6.65;;;;;;;23.16;100.00;98584.91;3648297;79;43341;-24
2021/06/05 09:46:39;;;;;;;6.22;5.72;;;;;;;23.39;100.00;98589.05;3654436;79;43718;-24
2021/06/05 09:51:50;;;;;;;5.55;5.00;;;;;;;23.72;97.56;98585.86;3564373;81;44084;-23
2021/06/05 09:57:01;;;;;;;6.30;4.90;;;;;;;23.80;92.31;98589.63;3659830;79;43709;-23
2021/06/05 10:02:10;;;;;;;5.25;4.85;;;;;;;23.86;94.53;98598.27;3656207;79;43598;-24
2021/06/05 10:07:26;;;;;;;6.25;5.75;;;;;;;24.01;91.98;98590.89;3581043;81;43720;-24
2021/06/05 10:12:35;;;;;;;6.67;6.08;;;;;;;24.19;93.92;98583.52;3658960;79;43443;-24
2021/06/05 10:17:47;;;;;;;5.70;5.20;;;;;;;24.45;91.76;98583.44;3658422;79;43678;-24
2021/06/05 10:22:55;;;;;;;5.85;5.33;;;;;;;24.70;92.80;98581.69;3657214;79;44185;-24
2021/06/05 10:28:06;;;;;;;5.90;5.40;;;;;;;24.68;89.63;98585.23;3632762;79;44030;-25
2021/06/05 10:33:15;;;;;;;6.08;5.37;;;;;;;24.90;89.71;98572.92;3621334;80;44109;-26
2021/06/05 10:38:25;;;;;;;6.40;5.80;;;;;;;25.08;87.28;98563.55;3591420;81;44449;-24
2021/06/05 10:43:32;;;;;;;5.00;4.60;;;;;;;24.67;85.36;98553.78;3606247;80;44164;-25
2021/06/05 10:48:46;;;;;;;5.28;4.78;;;;;;;24.80;86.29;98543.02;3604326;80;44144;-24
2021/06/05 10:54:01;;;;;;;5.10;4.70;;;;;;;24.68;85.51;98523.25;3599944;81;26470;-25
2021/06/05 10:59:10;;;;;;;5.40;4.85;;;;;;;24.84;81.95;98527.10;3588031;81;44410;-25
2021/06/05 11:04:42;;;;;;;5.25;4.75;;;;;;;24.91;83.78;98517.28;3606359;80;43485;-24
2021/06/05 11:09:52;;;;;;;5.05;4.65;;;;;;;25.00;85.93;98520.41;3599182;81;44022;-24
2021/06/05 11:14:58;;;;;;;5.10;4.55;;;;;;;25.34;81.98;98525.88;3641772;80;43424;-25
2021/06/05 11:20:41;;;;;;;5.00;4.60;;;;;;;25.71;79.97;98525.23;3612317;80;43832;-24
2021/06/05 11:25:51;;;;;;;4.90;4.40;;;;;;;25.84;79.92;98515.73;3604696;80;43700;-23
2021/06/05 11:30:58;;;;;;;4.70;4.30;;;;;;;25.92;78.65;98522.16;3603215;81;44059;-24
2021/06/05 11:36:10;;;;;;;4.53;4.15;;;;;;;26.04;76.83;98509.59;3605318;80;43689;-24
2021/06/05 11:41:46;;;;;;;4.92;4.53;;;;;;;25.90;76.62;98501.44;3595097;81;44123;-24
2021/06/05 11:46:55;;;;;;;5.22;4.80;;;;;;;25.77;73.93;98492.47;3607298;80;43941;-25
2021/06/05 11:52:39;;;;;;;5.42;4.55;;;;;;;25.50;76.15;98496.59;3610311;80;44054;-24
2021/06/05 11:57:47;;;;;;;4.90;4.47;;;;;;;25.48;75.80;98496.83;3597429;81;44886;-23
2021/06/05 12:02:59;;;;;;;5.08;4.58;;;;;;;25.43;74.87;98495.41;3526628;82;44599;-25
2021/06/05 12:08:21;;;;;;;4.95;4.45;;;;;;;25.30;75.30;98485.54;3593919;81;43232;-25
2021/06/05 12:13:33;;;;;;;5.58;4.40;;;;;;;24.97;75.93;98492.01;3604202;80;44160;-25
2021/06/05 12:18:38;;;;;;;4.60;4.20;;;;;;;24.89;74.61;98496.84;3596990;81;44101;-26
2021/06/05 12:23:44;;;;;;;4.37;3.83;;;;;;;24.99;73.72;98500.86;3601515;80;43313;-24
2021/06/05 12:28:52;;;;;;;6.10;3.77;;;;;;;25.08;73.77;98512.55;3613021;79;44071;-24
2021/06/05 12:34:00;;;;;;;3.75;3.45;;;;;;;25.15;73.88;98511.00;3657337;79;43870;-26
2021/06/05 12:39:16;;;;;;;4.22;3.87;;;;;;;24.98;74.38;98508.28;3653540;79;43763;-24
2021/06/05 12:44:24;;;;;;;4.25;3.85;;;;;;;24.98;76.97;98506.08;3653515;79;43017;-24
2021/06/05 12:49:31;;;;;;;4.40;4.00;;;;;;;24.98;76.35;98484.03;3648412;79;43423;-24
2021/06/05 12:54:40;;;;;;;4.90;4.08;;;;;;;24.85;77.46;98487.44;3661664;79;42984;-24
2021/06/05 12:59:46;;;;;;;4.20;3.80;;;;;;;24.93;76.76;98484.80;3558102;81;44136;-24
2021/06/05 13:04:53;;;;;;;3.92;3.62;;;;;;;24.87;76.54;98490.75;3667541;79;44841;-25
2021/06/05 13:09:59;;;;;;;3.83;3.40;;;;;;;24.87;76.23;98487.17;3677328;79;43729;-25
2021/06/05 13:15:11;;;;;;;4.30;3.87;;;;;;;24.81;76.84;98487.64;3672921;79;43700;-25
2021/06/05 13:20:34;;;;;;;4.12;3.72;;;;;;;24.71;77.00;98486.13;3662707;79;43492;-25
2021/06/05 13:25:41;;;;;;;4.08;3.77;;;;;;;24.57;77.66;98484.23;3650123;79;43758;-25
2021/06/05 13:30:51;;;;;;;3.90;3.50;;;;;;;24.43;76.96;98479.06;3570797;81;44057;-25
2021/06/05 13:36:00;;;;;;;3.85;3.55;;;;;;;24.32;79.50;98474.47;3657245;79;43354;-25
2021/06/05 13:41:06;;;;;;;4.00;3.70;;;;;;;24.27;81.35;98473.84;3652907;79;43529;-25
2021/06/05 13:46:12;;;;;;;4.80;4.00;;;;;;;24.14;83.38;98470.05;3657566;79;43694;-25
2021/06/05 13:51:18;;;;;;;5.35;4.85;;;;;;;24.15;85.94;98470.34;3565786;82;43772;-25
2021/06/05 13:56:26;;;;;;;5.65;5.15;;;;;;;23.68;93.79;98459.00;3657213;79;44155;-25
2021/06/05 14:01:34;;;;;;;5.83;5.28;;;;;;;23.55;97.34;98458.22;3655068;79;43758;-25
2021/06/05 14:06:41;;;;;;;6.03;5.45;;;;;;;23.40;100.00;98459.31;3560954;81;44142;-24
2021/06/05 14:11:46;;;;;;;5.50;5.00;;;;;;;23.44;100.00;98474.22;3661095;79;43366;-25
2021/06/05 14:16:52;;;;;;;7.30;4.90;;;;;;;23.43;100.00;98484.92;3565524;81;44017;-25
2021/06/05 14:21:58;;;;;;;6.00;5.40;;;;;;;23.45;100.00;98484.14;3655022;79;43199;-25
2021/06/05 14:27:06;;;;;;;6.55;5.72;;;;;;;23.39;100.00;98496.12;3555850;81;43995;-26
2021/06/05 14:32:12;;;;;;;6.00;5.37;;;;;;;23.04;100.00;98490.95;3644477;79;43267;-24
2021/06/05 14:37:18;;;;;;;5.65;5.15;;;;;;;23.00;100.00;98482.06;3651056;79;43408;-24
2021/06/05 14:42:24;;;;;;;5.95;5.30;;;;;;;22.98;100.00;98473.22;3657168;79;44082;-24
2021/06/05 14:47:30;;;;;;;4.53;4.12;;;;;;;22.90;100.00;98467.03;3562022;81;43703;-26
2021/06/05 14:52:37;;;;;;;5.12;4.72;;;;;;;22.83;100.00;98458.62;3650875;79;44199;-24
2021/06/05 14:57:44;;;;;;;7.00;5.22;;;;;;;22.86;100.00;98452.09;3649634;79;43307;-24
2021/06/05 15:02:50;;;;;;;5.50;5.00;;;;;;;22.53;100.00;98452.19;3663811;79;44023;-24
2021/06/05 15:07:56;;;;;;;4.45;4.05;;;;;;;22.75;100.00;98452.43;3689788;79;43424;-25
2021/06/05 15:13:04;;;;;;;5.60;4.30;;;;;;;22.77;100.00;98455.74;3665774;79;43599;-25
2021/06/05 15:18:12;;;;;;;4.65;4.10;;;;;;;23.05;100.00;98471.20;3663703;79;43399;-25
2021/06/05 15:23:18;;;;;;;5.67;4.58;;;;;;;23.21;100.00;98477.88;3567879;81;43191;-25
2021/06/05 15:28:25;;;;;;;5.45;4.08;;;;;;;23.06;100.00;98486.58;3647980;79;44098;-24
2021/06/05 15:33:34;;;;;;;4.37;3.98;;;;;;;23.29;100.00;98495.36;3567679;81;43571;-24
2021/06/05 15:38:40;;;;;;;5.80;5.22;;;;;;;23.12;100.00;98506.77;3658788;79;43443;-25
2021/06/05 15:43:47;;;;;;;7.10;4.67;;;;;;;23.13;100.00;98515.31;3658178;79;43627;-25
2021/06/05 15:48:53;;;;;;;6.67;4.53;;;;;;;22.89;100.00;98526.31;3650856;79;43463;-25
2021/06/05 15:54:02;;;;;;;4.22;3.83;;;;;;;22.77;100.00;98530.45;3655268;79;43707;-25
2021/06/05 15:59:08;;;;;;;5.67;4.40;;;;;;;22.69;100.00;98533.02;3655999;79;43353;-25
2021/06/05 16:04:17;;;;;;;6.65;5.50;;;;;;;22.63;100.00;98532.60;3654999;79;43724;-25
2021/06/05 16:09:23;;;;;;;6.20;5.08;;;;;;;22.59;100.00;98524.53;3563656;82;43261;-25
2021/06/05 16:14:29;;;;;;;5.00;4.50;;;;;;;22.70;100.00;98525.59;3651683;79;44666;-25
2021/06/05 16:19:35;;;;;;;6.15;4.95;;;;;;;22.69;100.00;98523.40;3656216;79;43978;-25
2021/06/05 16:24:41;;;;;;;4.75;4.22;;;;;;;22.89;100.00;98509.83;3656982;79;44090;-25
2021/06/05 16:29:47;;;;;;;6.67;6.08;;;;;;;22.94;100.00;98497.60;3567803;81;44083;-25
2021/06/05 16:34:53;;;;;;;6.92;6.22;;;;;;;23.07;100.00;98488.25;3630259;80;44074;-25
2021/06/05 16:39:59;;;;;;;6.53;5.90;;;;;;;22.91;100.00;98491.20;3616755;80;43358;-25
2021/06/05 16:45:08;;;;;;;6.10;5.60;;;;;;;22.85;100.00;98486.69;3621355;80;44070;-25
2021/06/05 16:50:18;;;;;;;6.70;6.08;;;;;;;22.99;100.00;98481.77;3633515;80;43968;-25
2021/06/05 16:55:24;;;;;;;7.15;6.55;;;;;;;23.18;100.00;98481.08;3583928;81;44103;-25
2021/06/05 17:00:34;;;;;;;7.05;6.35;;;;;;;23.21;100.00;98476.52;3642091;80;43961;-25
2021/06/05 17:05:41;;;;;;;8.63;7.83;;;;;;;22.85;100.00;98486.14;3652997;80;44052;-25
2021/06/05 17:10:48;;;;;;;7.90;7.20;;;;;;;22.89;100.00;98488.70;3623727;81;44105;-25
2021/06/05 17:15:56;;;;;;;14.78;13.48;;;;;;;22.89;100.00;98496.09;3640480;80;43719;-25
2021/06/05 17:21:03;;;;;;;10.43;9.35;;;;;;;22.99;100.00;98501.82;3634361;80;44075;-25
2021/06/05 17:26:12;;;;;;;7.37;6.67;;;;;;;22.91;100.00;98507.69;3614283;80;43297;-25
2021/06/05 17:31:19;;;;;;;7.80;6.97;;;;;;;23.17;100.00;98506.33;3607136;80;43341;-25
2021/06/05 17:36:26;;;;;;;6.60;6.00;;;;;;;23.14;100.00;98505.98;3649278;79;43232;-25
2021/06/05 17:41:32;;;;;;;5.80;3.08;;;;;;;23.05;100.00;98507.74;3658773;79;44139;-25
2021/06/05 17:46:37;;;;;;;3.10;2.80;;;;;;;22.76;100.00;98514.49;3656899;79;43412;-25
2021/06/05 17:51:43;;;;;;;5.00;2.85;;;;;;;22.47;100.00;98517.12;3673977;79;43444;-25
2021/06/05 17:56:50;;;;;;;4.35;2.58;;;;;;;22.01;100.00;98510.42;3563141;82;44237;-26
2021/06/05 18:01:56;;;;;;;2.80;2.60;;;;;;;21.80;100.00;98512.63;3658005;79;43323;-25
2021/06/05 18:07:02;;;;;;;3.40;2.87;;;;;;;21.52;100.00;98506.33;3566216;81;43612;-24
2021/06/05 18:12:12;;;;;;;3.40;3.10;;;;;;;21.37;100.00;98518.52;3649947;79;44016;-24
2021/06/05 18:17:18;;;;;;;3.83;3.30;;;;;;;21.19;100.00;98538.54;3561296;81;44095;-24
2021/06/05 18:22:24;;;;;;;3.67;3.35;;;;;;;21.00;100.00;98548.64;3644653;79;43671;-24
2021/06/05 18:27:30;;;;;;;4.35;3.70;;;;;;;20.84;100.00;98552.80;3660794;79;44185;-24
2021/06/05 18:32:36;;;;;;;4.47;3.85;;;;;;;20.67;100.00;98551.13;3564406;81;43339;-24
2021/06/05 18:37:42;;;;;;;5.03;4.53;;;;;;;20.60;100.00;98553.92;3601026;81;43680;-24
2021/06/05 18:42:49;;;;;;;6.12;5.40;;;;;;;20.45;100.00;98539.21;3585751;81;44082;-24
2021/06/05 18:47:54;;;;;;;6.47;5.83;;;;;;;20.30;100.00;98540.88;3534816;82;43771;-24
2021/06/05 18:53:01;;;;;;;5.33;4.83;;;;;;;20.12;100.00;98547.65;3532572;82;43676;-25
2021/06/05 18:58:09;;;;;;;5.00;4.50;;;;;;;19.93;100.00;98537.14;3654304;79;43264;-24
2021/06/05 19:03:16;;;;;;;4.80;4.40;;;;;;;19.82;100.00;98539.99;3674682;79;44035;-24
2021/06/05 19:08:25;;;;;;;6.65;4.40;;;;;;;19.75;100.00;98532.38;3673993;79;44416;-24
2021/06/05 19:13:31;;;;;;;4.75;4.08;;;;;;;19.72;100.00;98537.75;3650762;79;44399;-24
2021/06/05 19:18:38;;;;;;;5.25;4.20;;;;;;;19.74;100.00;98541.62;3642950;79;43745;-23
2021/06/05 19:23:47;;;;;;;5.03;4.53;;;;;;;19.76;100.00;98531.31;3657780;79;44042;-23
2021/06/05 19:28:52;;;;;;;5.20;4.70;;;;;;;19.67;100.00;98535.67;3657506;79;43718;-23
2021/06/05 19:34:00;;;;;;;5.55;5.05;;;;;;;19.52;100.00;98548.77;3653014;79;43075;-23
2021/06/05 19:39:10;;;;;;;6.40;5.90;;;;;;;19.36;100.00;98557.74;3663375;79;43322;-23
2021/06/05 19:44:18;;;;;;;6.72;6.08;;;;;;;19.45;100.00;98556.98;3600734;81;43834;-23
2021/06/05 19:49:26;;;;;;;6.58;6.00;;;;;;;19.49;100.00;98566.95;3635897;79;44528;-24
2021/06/05 19:54:34;;;;;;;6.37;5.67;;;;;;;19.37;100.00;98566.25;3649959;79;44015;-24
2021/06/05 19:59:40;;;;;;;6.55;5.95;;;;;;;19.31;100.00;98574.47;3653228;79;43312;-24
2021/06/05 20:04:47;;;;;;;7.30;6.70;;;;;;;19.25;100.00;98582.48;3647253;79;44557;-24
2021/06/05 20:09:53;;;;;;;7.78;7.08;;;;;;;19.24;100.00;98584.05;3650576;79;44551;-24
2021/06/05 20:15:00;;;;;;;8.08;7.37;;;;;;;19.20;100.00;98592.38;3641804;79;44037;-24
2021/06/05 20:20:09;;;;;;;7.22;6.53;;;;;;;19.15;100.00;98589.42;3630743;79;44070;-24
2021/06/05 20:25:17;;;;;;;7.28;6.58;;;;;;;19.18;100.00;98589.01;3650946;79;43458;-24
2021/06/05 20:30:25;;;;;;;7.62;6.92;;;;;;;19.12;100.00;98591.21;3649045;79;42932;-25
2021/06/05 20:35:32;;;;;;;9.78;8.48;;;;;;;19.15;100.00;98599.84;3645195;78;43409;-25
2021/06/05 20:40:39;;;;;;;8.00;7.17;;;;;;;19.05;100.00;98596.17;3645477;79;43486;-23
2021/06/05 20:45:45;;;;;;;9.05;7.28;;;;;;;19.05;100.00;98598.91;3651229;79;43679;-23
2021/06/05 20:50:51;;;;;;;8.70;6.28;;;;;;;18.96;100.00;98602.91;3650140;79;44026;-23
2021/06/05 20:55:57;;;;;;;10.23;7.15;;;;;;;18.91;100.00;98603.52;3649963;79;43673;-25
2021/06/05 21:01:05;;;;;;;8.65;6.17;;;;;;;18.91;100.00;98597.20;3654753;79;43423;-24
2021/06/05 21:06:12;;;;;;;8.00;6.97;;;;;;;18.90;100.00;98595.52;3646969;79;43690;-23
2021/06/05 21:11:20;;;;;;;7.08;6.37;;;;;;;18.84;100.00;98593.64;3640883;79;44087;-23
2021/06/05 21:16:28;;;;;;;7.05;6.35;;;;;;;18.83;100.00;98593.33;3656048;79;43684;-23
2021/06/05 21:21:36;;;;;;;9.08;7.12;;;;;;;18.83;100.00;98600.16;3650269;79;43651;-23
2021/06/05 21:26:43;;;;;;;8.78;7.25;;;;;;;18.71;100.00;98602.66;3652013;79;43686;-23
2021/06/05 21:31:53;;;;;;;7.78;6.97;;;;;;;18.52;100.00;98610.63;3649486;79;44027;-24
2021/06/05 21:36:57;;;;;;;9.08;7.20;;;;;;;18.40;100.00;98613.66;3573605;81;44092;-23
2021/06/05 21:42:04;;;;;;;7.47;6.40;;;;;;;18.31;100.00;98621.19;3576067;82;43665;-24
2021/06/05 21:47:10;;;;;;;7.17;6.58;;;;;;;18.32;100.00;98624.23;3576958;81;43703;-24
2021/06/05 21:52:16;;;;;;;6.35;5.75;;;;;;;18.39;100.00;98634.66;3570560;82;43712;-24
2021/06/05 21:57:22;;;;;;;9.73;7.25;;;;;;;18.43;100.00;98633.17;3573781;82;43428;-23
2021/06/05 22:02:28;;;;;;;6.87;6.17;;;;;;;18.46;100.00;98638.22;3565998;81;44188;-23
2021/06/05 22:07:34;;;;;;;6.30;5.70;;;;;;;18.46;100.00;98634.67;3570413;81;43660;-23
2021/06/05 22:12:40;;;;;;;7.70;6.90;;;;;;;18.45;100.00;98641.17;3560772;82;43672;-24
2021/06/05 22:17:48;;;;;;;7.67;6.92;;;;;;;18.46;100.00;98637.40;3576025;81;44428;-24
2021/06/05 22:22:54;;;;;;;9.13;7.45;;;;;;;18.35;100.00;98638.83;3561027;81;43388;-24
2021/06/05 22:28:00;;;;;;;8.03;6.80;;;;;;;18.30;100.00;98635.88;3559733;81;43450;-24
2021/06/05 22:33:10;;;;;;;8.53;7.75;;;;;;;18.25;100.00;98635.66;3564206;80;42852;-24
2021/06/05 22:38:16;;;;;;;10.13;7.72;;;;;;;18.16;100.00;98638.59;3592545;80;43076;-25
2021/06/05 22:43:25;;;;;;;10.75;9.63;;;;;;;18.11;100.00;98636.98;3606712;80;44069;-24
2021/06/05 22:48:36;;;;;;;11.97;10.48;;;;;;;18.08;100.00;98636.56;3590108;81;43714;-24
2021/06/05 22:53:42;;;;;;;12.23;11.05;;;;;;;18.05;100.00;98631.51;3616123;81;43596;-24
2021/06/05 22:58:48;;;;;;;10.18;9.28;;;;;;;17.98;100.00;98638.30;3619133;80;43320;-24
2021/06/05 23:03:56;;;;;;;10.30;9.20;;;;;;;17.92;100.00;98633.65;3612851;80;43417;-24
2021/06/05 23:09:04;;;;;;;10.43;8.90;;;;;;;17.90;100.00;98628.37;3599586;80;44074;-24
2021/06/05 23:14:10;;;;;;;8.83;7.67;;;;;;;17.90;100.00;98627.55;3610197;80;43488;-24
2021/06/05 23:19:17;;;;;;;9.08;8.28;;;;;;;17.94;100.00;98625.58;3608113;81;44545;-24
2021/06/05 23:24:25;;;;;;;10.15;9.13;;;;;;;17.91;100.00;98623.79;3602948;80;43766;-24
2021/06/05 23:29:30;;;;;;;11.57;9.88;;;;;;;17.89;100.00;98627.23;3601494;80;44175;-24
2021/06/05 23:34:37;;;;;;;10.08;8.98;;;;;;;17.85;100.00;98626.27;3621013;79;43677;-24
2021/06/05 23:39:43;;;;;;;10.88;9.70;;;;;;;17.73;100.00;98621.61;3655874;79;42924;-24
2021/06/05 23:44:49;;;;;;;10.65;9.55;;;;;;;17.69;100.00;98617.09;3642825;79;43721;-23